createdAt,value
2023-04-18T00:01:21.560Z,98131.04
2023-04-18T00:03:52.758Z,98130.66
2023-04-18T00:06:22.358Z,98128.65
2023-04-18T00:08:50.288Z,98129.77
2023-04-18T00:11:18.281Z,98124.91
2023-04-18T00:13:47.584Z,98122.60
2023-04-18T00:16:15.734Z,98123.95
2023-04-18T00:18:43.851Z,98122.28
2023-04-18T00:21:12.043Z,98124.00
2023-04-18T00:23:39.950Z,98120.98
2023-04-18T00:26:07.878Z,98128.14
2023-04-18T00:28:35.784Z,98127.38
2023-04-18T00:31:04.084Z,98132.37
2023-04-18T00:33:34.551Z,98130.23
2023-04-18T00:36:02.507Z,98136.41
2023-04-18T00:38:30.491Z,98138.06
2023-04-18T00:40:58.375Z,98133.93
2023-04-18T00:43:26.935Z,98136.02
2023-04-18T00:45:57.198Z,98132.23
2023-04-18T00:48:25.987Z,98133.41
2023-04-18T00:50:56.038Z,98135.68
2023-04-18T00:53:24.433Z,98133.20
2023-04-18T00:55:53.319Z,98135.97
2023-04-18T00:58:21.317Z,98136.52
2023-04-18T01:00:49.208Z,98137.33
2023-04-18T01:03:18.596Z,98133.35
2023-04-18T01:05:47.399Z,98132.11
2023-04-18T01:08:16.448Z,98138.70
2023-04-18T01:10:45.358Z,98134.20
2023-04-18T01:13:18.316Z,98129.45
2023-04-18T01:15:49.263Z,98131.05
2023-04-18T01:18:18.088Z,98128.12
2023-04-18T01:20:50.146Z,98125.30
2023-04-18T01:23:21.530Z,98131.85
2023-04-18T01:25:49.543Z,98130.88
2023-04-18T01:28:21.601Z,98134.05
2023-04-18T01:30:49.924Z,98125.73
2023-04-18T01:33:17.937Z,98131.69
2023-04-18T01:35:46.989Z,98129.94
2023-04-18T01:38:15.119Z,98131.77
2023-04-18T01:40:43.029Z,98134.23
2023-04-18T01:43:10.978Z,98136.23
2023-04-18T01:45:39.191Z,98131.55
2023-04-18T01:48:07.256Z,98137.09
2023-04-18T01:50:37.656Z,98139.81
2023-04-18T01:53:05.690Z,98138.96
2023-04-18T01:55:33.696Z,98139.21
2023-04-18T01:58:01.606Z,98143.02
2023-04-18T02:00:29.694Z,98143.08
2023-04-18T02:02:59.521Z,98141.15
2023-04-18T02:05:27.855Z,98144.54
2023-04-18T02:07:56.072Z,98141.26
2023-04-18T02:10:24.635Z,98139.38
2023-04-18T02:12:52.693Z,98134.06
2023-04-18T02:15:21.099Z,98136.23
2023-04-18T02:17:49.310Z,98131.48
2023-04-18T02:20:17.217Z,98129.34
2023-04-18T02:22:45.088Z,98128.25
2023-04-18T02:25:13.019Z,98130.81
2023-04-18T02:27:41.329Z,98129.20
2023-04-18T02:30:09.871Z,98124.86
2023-04-18T02:32:37.842Z,98123.86
2023-04-18T02:35:06.512Z,98127.30
2023-04-18T02:37:34.490Z,98129.01
2023-04-18T02:40:05.084Z,98129.59
2023-04-18T02:42:33.610Z,98128.77
2023-04-18T02:45:02.499Z,98129.85
2023-04-18T02:47:37.573Z,98127.46
2023-04-18T02:50:11.758Z,98129.23
2023-04-18T02:52:40.202Z,98128.34
2023-04-18T02:55:09.603Z,98128.03
2023-04-18T02:57:39.899Z,98128.45
2023-04-18T03:00:27.015Z,98129.20
2023-04-18T03:03:02.828Z,98132.21
2023-04-18T03:05:43.102Z,98130.30
2023-04-18T03:08:11.830Z,98136.19
2023-04-18T03:10:40.170Z,98135.75
2023-04-18T03:13:08.685Z,98132.38
2023-04-18T03:15:37.598Z,98134.77
2023-04-18T03:18:06.355Z,98135.84
2023-04-18T03:20:37.670Z,98135.73
2023-04-18T03:23:08.001Z,98137.17
2023-04-18T03:25:37.296Z,98137.88
2023-04-18T03:28:05.871Z,98141.95
2023-04-18T03:30:34.259Z,98143.73
2023-04-18T03:33:03.000Z,98142.42
2023-04-18T03:35:31.798Z,98147.30
2023-04-18T03:37:59.874Z,98141.20
2023-04-18T03:40:34.687Z,98147.00
2023-04-18T03:43:07.720Z,98150.09
2023-04-18T03:45:35.929Z,98151.85
2023-04-18T03:48:04.282Z,98155.02
2023-04-18T03:50:34.726Z,98154.14
2023-04-18T03:53:04.370Z,98159.67
2023-04-18T03:55:34.092Z,98165.69
2023-04-18T03:58:03.299Z,98163.48
2023-04-18T04:00:31.482Z,98164.50
2023-04-18T04:03:02.430Z,98166.27
2023-04-18T04:05:30.704Z,98171.06
2023-04-18T04:07:58.720Z,98175.79
2023-04-18T04:10:27.497Z,98176.38
2023-04-18T04:12:55.561Z,98178.58
2023-04-18T04:15:23.950Z,98183.34
2023-04-18T04:17:57.266Z,98186.17
2023-04-18T04:20:26.637Z,98189.02
2023-04-18T04:23:01.487Z,98184.20
2023-04-18T04:25:30.180Z,98185.72
2023-04-18T04:28:03.161Z,98190.11
2023-04-18T04:30:33.876Z,98197.24
2023-04-18T04:33:02.013Z,98195.93
2023-04-18T04:35:30.311Z,98200.55
2023-04-18T04:37:59.079Z,98204.08
2023-04-18T04:40:33.098Z,98204.61
2023-04-18T04:43:15.789Z,98206.05
2023-04-18T04:45:45.620Z,98212.21
2023-04-18T04:48:13.615Z,98210.56
2023-04-18T04:50:52.236Z,98215.27
2023-04-18T04:53:20.481Z,98217.58
2023-04-18T04:55:49.880Z,98220.27
2023-04-18T04:58:18.661Z,98223.69
2023-04-18T05:01:00.835Z,98228.66
2023-04-18T05:03:29.000Z,98232.23
2023-04-18T05:05:58.280Z,98238.37
2023-04-18T05:08:26.332Z,98239.29
2023-04-18T05:10:55.340Z,98242.89
2023-04-18T05:13:23.229Z,98241.33
2023-04-18T05:15:52.812Z,98244.26
2023-04-18T05:18:21.028Z,98252.98
2023-04-18T05:20:49.147Z,98251.50
2023-04-18T05:23:17.099Z,98255.15
2023-04-18T05:25:45.023Z,98256.95
2023-04-18T05:28:13.004Z,98256.96
2023-04-18T05:30:41.008Z,98260.45
2023-04-18T05:33:08.991Z,98263.20
2023-04-18T05:35:37.090Z,98263.33
2023-04-18T05:38:05.012Z,98265.16
2023-04-18T05:40:32.971Z,98265.96
2023-04-18T05:43:01.154Z,98273.36
2023-04-18T05:45:29.201Z,98265.84
2023-04-18T05:47:57.340Z,98273.17
2023-04-18T05:50:25.316Z,98270.28
2023-04-18T05:52:53.275Z,98270.35
2023-04-18T05:55:21.289Z,98266.86
2023-04-18T05:57:49.196Z,98266.86
2023-04-18T06:00:17.841Z,98273.14
2023-04-18T06:02:46.341Z,98272.94
2023-04-18T06:05:14.627Z,98274.52
2023-04-18T06:07:42.955Z,98271.14
2023-04-18T06:10:13.549Z,98273.03
2023-04-18T06:12:41.978Z,98276.42
2023-04-18T06:15:10.857Z,98279.20
2023-04-18T06:17:38.966Z,98279.44
2023-04-18T06:20:07.316Z,98286.19
2023-04-18T06:22:35.208Z,98288.24
2023-04-18T06:25:03.799Z,98290.95
2023-04-18T06:27:32.144Z,98290.79
2023-04-18T06:30:00.326Z,98295.23
2023-04-18T06:32:28.421Z,98297.52
2023-04-18T06:34:56.549Z,98299.00
2023-04-18T06:37:25.000Z,98294.50
2023-04-18T06:39:53.069Z,98298.80
2023-04-18T06:42:22.475Z,98298.18
2023-04-18T06:44:50.833Z,98294.41
2023-04-18T06:47:18.901Z,98296.79
2023-04-18T06:49:46.901Z,98302.52
2023-04-18T06:52:14.985Z,98301.86
2023-04-18T06:54:42.913Z,98304.30
2023-04-18T06:57:11.361Z,98305.68
2023-04-18T06:59:40.933Z,98299.64
2023-04-18T07:02:08.967Z,98306.62
2023-04-18T07:04:37.198Z,98306.34
2023-04-18T07:07:05.460Z,98309.60
2023-04-18T07:09:33.443Z,98308.40
2023-04-18T07:12:01.401Z,98309.89
2023-04-18T07:14:30.135Z,98312.50
2023-04-18T07:17:00.949Z,98316.23
2023-04-18T07:19:28.919Z,98318.52
2023-04-18T07:21:56.946Z,98321.91
2023-04-18T07:24:24.879Z,98322.20
2023-04-18T07:26:55.086Z,98322.77
2023-04-18T07:29:23.278Z,98327.02
2023-04-18T07:31:51.230Z,98327.89
2023-04-18T07:34:19.205Z,98327.81
2023-04-18T07:36:47.171Z,98332.94
2023-04-18T07:39:15.221Z,98337.08
2023-04-18T07:41:43.270Z,98337.42
2023-04-18T07:44:11.631Z,98337.65
2023-04-18T07:46:39.892Z,98337.18
2023-04-18T07:49:08.016Z,98339.12
2023-04-18T07:51:36.327Z,98340.79
2023-04-18T07:54:04.397Z,98339.82
2023-04-18T07:56:32.370Z,98341.55
2023-04-18T07:59:00.254Z,98340.85
2023-04-18T08:01:28.315Z,98342.00
2023-04-18T08:03:58.067Z,98339.96
2023-04-18T08:06:27.134Z,98342.16
2023-04-18T08:08:55.196Z,98340.36
2023-04-18T08:11:23.137Z,98345.02
2023-04-18T08:13:51.104Z,98340.80
2023-04-18T08:16:19.045Z,98343.30
2023-04-18T08:18:47.206Z,98340.98
2023-04-18T08:21:15.364Z,98348.34
2023-04-18T08:23:43.304Z,98345.80
2023-04-18T08:26:11.304Z,98350.71
2023-04-18T08:28:39.281Z,98347.22
2023-04-18T08:31:07.308Z,98354.54
2023-04-18T08:33:35.378Z,98357.93
2023-04-18T08:36:03.338Z,98354.67
2023-04-18T08:38:31.234Z,98352.41
2023-04-18T08:40:59.101Z,98359.57
2023-04-18T08:43:27.108Z,98353.70
2023-04-18T08:45:59.382Z,98354.85
2023-04-18T08:48:28.451Z,98354.34
2023-04-18T08:50:58.710Z,98360.25
2023-04-18T08:53:27.198Z,98360.88
2023-04-18T08:55:56.545Z,98359.91
2023-04-18T08:58:27.551Z,98360.27
2023-04-18T09:00:55.672Z,98349.70
2023-04-18T09:03:41.479Z,98353.09
2023-04-18T09:06:18.751Z,98354.38
2023-04-18T09:08:59.243Z,98359.05
2023-04-18T09:11:29.623Z,98358.02
2023-04-18T09:13:59.227Z,98355.50
2023-04-18T09:16:28.034Z,98353.30
2023-04-18T09:19:11.258Z,98355.42
2023-04-18T09:21:41.633Z,98358.32
2023-04-18T09:24:29.268Z,98358.15
2023-04-18T09:26:59.952Z,98359.38
2023-04-18T09:29:46.424Z,98353.66
2023-04-18T09:32:27.197Z,98349.58
2023-04-18T09:34:59.781Z,98349.61
2023-04-18T09:37:29.383Z,98351.75
2023-04-18T09:39:57.276Z,98353.15
2023-04-18T09:42:27.374Z,98353.19
2023-04-18T09:45:05.791Z,98356.88
2023-04-18T09:47:36.598Z,98349.93
2023-04-18T09:50:10.481Z,98351.58
2023-04-18T09:52:42.779Z,98351.90
2023-04-18T09:55:16.801Z,98351.94
2023-04-18T09:57:47.324Z,98349.59
2023-04-18T10:00:23.694Z,98350.94
2023-04-18T10:02:51.901Z,98354.69
2023-04-18T10:05:21.987Z,98351.80
2023-04-18T10:07:51.091Z,98350.89
2023-04-18T10:10:19.412Z,98353.07
2023-04-18T10:12:48.900Z,98351.84
2023-04-18T10:15:20.183Z,98349.68
2023-04-18T10:20:29.736Z,98350.20
2023-04-18T10:22:59.662Z,98346.90
2023-04-18T10:25:39.637Z,98343.88
2023-04-18T10:28:09.322Z,98343.48
2023-04-18T10:30:40.291Z,98341.25
2023-04-18T10:33:31.783Z,98340.54
2023-04-18T10:36:05.688Z,98337.73
2023-04-18T10:38:34.325Z,98335.92
2023-04-18T10:41:32.694Z,98330.60
2023-04-18T10:44:11.374Z,98329.02
2023-04-18T10:46:40.386Z,98329.41
2023-04-18T10:49:22.907Z,98326.95
2023-04-18T10:52:00.309Z,98325.33
2023-04-18T10:54:39.270Z,98324.25
2023-04-18T10:57:11.342Z,98323.61
2023-04-18T10:59:42.410Z,98317.65
2023-04-18T11:02:27.311Z,98322.00
2023-04-18T11:05:07.065Z,98322.06
2023-04-18T11:07:40.171Z,98315.04
2023-04-18T11:10:09.821Z,98318.84
2023-04-18T11:12:40.197Z,98319.88
2023-04-18T11:15:13.264Z,98316.73
2023-04-18T11:17:41.565Z,98314.08
2023-04-18T11:20:13.242Z,98307.98
2023-04-18T11:22:52.372Z,98310.64
2023-04-18T11:25:25.429Z,98311.69
2023-04-18T11:27:55.672Z,98311.23
2023-04-18T11:30:24.504Z,98313.02
2023-04-18T11:32:52.492Z,98305.81
2023-04-18T11:35:20.465Z,98307.98
2023-04-18T11:37:50.432Z,98303.27
2023-04-18T11:40:18.447Z,98304.70
2023-04-18T11:42:46.674Z,98304.09
2023-04-18T11:45:15.965Z,98302.27
2023-04-18T11:47:46.630Z,98303.77
2023-04-18T11:50:14.790Z,98303.79
2023-04-18T11:52:42.943Z,98308.75
2023-04-18T11:55:23.236Z,98305.85
2023-04-18T11:57:53.939Z,98300.98
2023-04-18T12:00:33.016Z,98300.77
2023-04-18T12:03:04.496Z,98302.27
2023-04-18T12:05:35.262Z,98305.65
2023-04-18T12:08:20.086Z,98300.30
2023-04-18T12:10:53.132Z,98303.83
2023-04-18T12:13:26.955Z,98305.88
2023-04-18T12:15:55.001Z,98300.20
2023-04-18T12:18:24.683Z,98294.41
2023-04-18T12:20:54.556Z,98292.88
2023-04-18T12:23:33.845Z,98294.15
2023-04-18T12:26:05.033Z,98298.83
2023-04-18T12:28:35.040Z,98293.31
2023-04-18T12:31:06.640Z,98295.43
2023-04-18T12:33:36.849Z,98291.83
2023-04-18T12:36:06.148Z,98290.46
2023-04-18T12:38:35.504Z,98289.20
2023-04-18T12:41:03.637Z,98289.08
2023-04-18T12:43:31.545Z,98291.45
2023-04-18T12:46:00.072Z,98295.33
2023-04-18T12:48:28.298Z,98292.64
2023-04-18T12:50:56.153Z,98288.89
2023-04-18T12:53:24.011Z,98294.91
2023-04-18T12:55:51.890Z,98288.43
2023-04-18T12:58:20.990Z,98294.55
2023-04-18T13:00:48.939Z,98288.30
2023-04-18T13:03:17.053Z,98288.79
2023-04-18T13:05:46.152Z,98285.13
2023-04-18T13:08:17.707Z,98284.90
2023-04-18T13:10:47.820Z,98277.36
2023-04-18T13:13:15.989Z,98276.76
2023-04-18T13:15:44.269Z,98278.92
2023-04-18T13:18:12.129Z,98273.67
2023-04-18T13:20:40.044Z,98276.72
2023-04-18T13:23:07.962Z,98279.76
2023-04-18T13:25:35.923Z,98279.75
2023-04-18T13:28:03.937Z,98274.59
2023-04-18T13:30:32.096Z,98273.73
2023-04-18T13:33:00.236Z,98277.77
2023-04-18T13:35:28.401Z,98276.36
2023-04-18T13:37:56.601Z,98270.46
2023-04-18T13:40:25.327Z,98270.86
2023-04-18T13:42:53.376Z,98263.47
2023-04-18T13:45:21.282Z,98264.75
2023-04-18T13:47:49.340Z,98262.19
2023-04-18T13:50:17.481Z,98258.27
2023-04-18T13:52:46.406Z,98264.32
2023-04-18T13:55:14.340Z,98266.16
2023-04-18T13:57:42.313Z,98267.39
2023-04-18T14:00:12.005Z,98260.14
2023-04-18T14:02:40.748Z,98258.53
2023-04-18T14:05:09.359Z,98265.14
2023-04-18T14:07:38.538Z,98260.95
2023-04-18T14:10:06.927Z,98262.88
2023-04-18T14:12:34.933Z,98265.29
2023-04-18T14:15:03.324Z,98264.27
2023-04-18T14:17:31.472Z,98265.10
2023-04-18T14:19:59.417Z,98258.75
2023-04-18T14:22:27.308Z,98258.76
2023-04-18T14:24:56.316Z,98259.92
2023-04-18T14:27:26.219Z,98266.77
2023-04-18T14:29:54.241Z,98266.90
2023-04-18T14:32:22.272Z,98262.55
2023-04-18T14:34:50.528Z,98265.00
2023-04-18T14:37:18.546Z,98267.11
2023-04-18T14:39:46.619Z,98263.84
2023-04-18T14:42:14.517Z,98264.29
2023-04-18T14:44:42.427Z,98269.36
2023-04-18T14:47:10.381Z,98271.13
2023-04-18T14:49:38.436Z,98271.00
2023-04-18T14:52:06.371Z,98268.27
2023-04-18T14:54:34.245Z,98265.11
2023-04-18T14:57:02.200Z,98262.45
2023-04-18T14:59:30.322Z,98266.94
2023-04-18T15:01:58.349Z,98264.27
2023-04-18T15:04:26.669Z,98268.29
2023-04-18T15:06:54.892Z,98266.10
2023-04-18T15:09:22.839Z,98265.55
2023-04-18T15:11:51.756Z,98269.69
2023-04-18T15:14:19.742Z,98268.20
2023-04-18T15:16:50.651Z,98267.77
2023-04-18T15:19:18.877Z,98269.44
2023-04-18T15:21:46.850Z,98270.10
2023-04-18T15:24:15.682Z,98268.25
2023-04-18T15:26:44.169Z,98265.63
2023-04-18T15:29:12.799Z,98266.42
2023-04-18T15:31:40.816Z,98268.42
2023-04-18T15:34:08.746Z,98271.70
2023-04-18T15:36:37.032Z,98268.45
2023-04-18T15:39:05.906Z,98274.69
2023-04-18T15:41:35.705Z,98272.19
2023-04-18T15:44:05.565Z,98278.13
2023-04-18T15:46:37.032Z,98275.57
2023-04-18T15:49:05.496Z,98278.80
2023-04-18T15:51:33.487Z,98280.67
2023-04-18T15:54:01.559Z,98282.85
2023-04-18T15:56:32.526Z,98284.38
2023-04-18T15:59:04.489Z,98283.35
2023-04-18T16:01:33.217Z,98286.98
2023-04-18T16:04:01.352Z,98282.33
2023-04-18T16:06:31.357Z,98283.14
2023-04-18T16:08:59.287Z,98279.29
2023-04-18T16:11:27.727Z,98287.26
2023-04-18T16:13:58.433Z,98288.08
2023-04-18T16:16:28.545Z,98287.58
2023-04-18T16:18:56.525Z,98289.02
2023-04-18T16:21:24.452Z,98287.08
2023-04-18T16:23:52.452Z,98286.92
2023-04-18T16:26:21.384Z,98281.55
2023-04-18T16:28:49.359Z,98282.11
2023-04-18T16:31:17.289Z,98281.27
2023-04-18T16:33:45.716Z,98283.64
2023-04-18T16:36:14.280Z,98280.90
2023-04-18T16:38:42.250Z,98282.16
2023-04-18T16:41:10.814Z,98281.11
2023-04-18T16:43:38.828Z,98280.43
2023-04-18T16:46:06.944Z,98282.43
2023-04-18T16:48:37.979Z,98277.81
2023-04-18T16:51:05.959Z,98283.45
2023-04-18T16:53:33.863Z,98280.33
2023-04-18T16:56:03.345Z,98283.15
2023-04-18T16:58:31.503Z,98281.61
2023-04-18T17:01:01.861Z,98283.23
2023-04-18T17:03:29.917Z,98284.45
2023-04-18T17:05:58.011Z,98284.55
2023-04-18T17:08:28.721Z,98283.44
2023-04-18T17:10:56.803Z,98283.11
2023-04-18T17:13:26.995Z,98286.82
2023-04-18T17:15:55.680Z,98287.38
2023-04-18T17:18:24.678Z,98282.55
2023-04-18T17:20:52.697Z,98282.29
2023-04-18T17:23:21.849Z,98289.71
2023-04-18T17:25:49.800Z,98292.91
2023-04-18T17:28:17.760Z,98292.34
2023-04-18T17:30:46.051Z,98294.58
2023-04-18T17:33:14.289Z,98291.69
2023-04-18T17:35:42.351Z,98295.23
2023-04-18T17:38:10.901Z,98294.83
2023-04-18T17:40:39.774Z,98296.67
2023-04-18T17:43:07.766Z,98294.45
2023-04-18T17:45:35.805Z,98297.48
2023-04-18T17:48:04.169Z,98293.61
2023-04-18T17:50:32.403Z,98295.36
2023-04-18T17:53:01.011Z,98297.73
2023-04-18T17:55:29.078Z,98300.52
2023-04-18T17:57:57.601Z,98300.19
2023-04-18T18:00:25.768Z,98301.63
2023-04-18T18:02:54.105Z,98304.72
2023-04-18T18:05:22.304Z,98306.63
2023-04-18T18:07:51.727Z,98300.27
2023-04-18T18:10:20.623Z,98300.20
2023-04-18T18:12:48.946Z,98297.28
2023-04-18T18:15:18.074Z,98301.18
2023-04-18T18:17:49.723Z,98303.64
2023-04-18T18:20:18.266Z,98302.44
2023-04-18T18:22:47.428Z,98300.69
2023-04-18T18:25:15.487Z,98303.67
2023-04-18T18:27:43.917Z,98309.26
2023-04-18T18:30:12.119Z,98306.02
2023-04-18T18:32:40.090Z,98309.16
2023-04-18T18:35:08.633Z,98306.80
2023-04-18T18:37:36.857Z,98308.02
2023-04-18T18:40:07.002Z,98306.92
2023-04-18T18:42:35.078Z,98305.70
2023-04-18T18:45:04.003Z,98305.70
2023-04-18T18:47:32.615Z,98306.64
2023-04-18T18:50:00.999Z,98304.73
2023-04-18T18:52:29.892Z,98301.36
2023-04-18T18:54:57.848Z,98302.89
2023-04-18T18:57:26.206Z,98304.60
2023-04-18T18:59:55.839Z,98300.27
2023-04-18T19:02:24.506Z,98302.30
2023-04-18T19:04:52.840Z,98304.20
2023-04-18T19:07:20.851Z,98303.19
2023-04-18T19:09:49.570Z,98305.07
2023-04-18T19:12:17.527Z,98304.27
2023-04-18T19:14:46.954Z,98301.20
2023-04-18T19:17:18.030Z,98305.29
2023-04-18T19:19:45.941Z,98309.01
2023-04-18T19:22:13.873Z,98303.52
2023-04-18T19:24:41.816Z,98305.30
2023-04-18T19:27:09.933Z,98304.27
2023-04-18T19:29:37.947Z,98302.81
2023-04-18T19:32:06.573Z,98304.27
2023-04-18T19:34:34.607Z,98301.60
2023-04-18T19:37:02.855Z,98296.88
2023-04-18T19:39:31.227Z,98292.80
2023-04-18T19:42:04.496Z,98294.59
2023-04-18T19:44:32.704Z,98291.74
2023-04-18T19:47:00.723Z,98288.81
2023-04-18T19:49:28.643Z,98289.48
2023-04-18T19:51:57.107Z,98287.79
2023-04-18T19:54:27.728Z,98286.57
2023-04-18T19:56:56.728Z,98282.65
2023-04-18T19:59:25.124Z,98280.33
2023-04-18T20:01:53.369Z,98283.02
2023-04-18T20:04:22.507Z,98280.77
2023-04-18T20:06:50.934Z,98277.77
2023-04-18T20:09:19.080Z,98279.60
2023-04-18T20:11:48.614Z,98272.91
2023-04-18T20:14:19.002Z,98272.38
2023-04-18T20:16:50.628Z,98270.81
2023-04-18T20:19:20.197Z,98246.05
2023-04-18T20:21:48.207Z,98267.83
2023-04-18T20:24:16.428Z,98266.67
2023-04-18T20:26:44.562Z,98266.77
2023-04-18T20:29:13.081Z,98266.73
2023-04-18T20:31:43.027Z,98266.38
2023-04-18T20:34:11.700Z,98267.02
2023-04-18T20:36:43.034Z,98265.20
2023-04-18T20:39:12.904Z,98264.70
2023-04-18T20:41:46.939Z,98258.84
2023-04-18T20:44:16.186Z,98258.08
2023-04-18T20:46:44.102Z,98263.62
2023-04-18T20:49:12.278Z,98259.23
2023-04-18T20:51:40.435Z,98261.59
2023-04-18T20:54:08.674Z,98256.14
2023-04-18T20:56:39.856Z,98257.87
2023-04-18T20:59:08.672Z,98255.48
2023-04-18T21:01:37.246Z,98254.70
2023-04-18T21:04:05.928Z,98253.95
2023-04-18T21:06:40.989Z,98250.69
2023-04-18T21:09:12.704Z,98251.88
2023-04-18T21:11:41.229Z,98248.61
2023-04-18T21:14:09.269Z,98244.85
2023-04-18T21:16:43.020Z,98244.07
2023-04-18T21:19:11.612Z,98236.31
2023-04-18T21:21:39.535Z,98236.42
2023-04-18T21:24:07.534Z,98234.98
2023-04-18T21:26:35.564Z,98232.23
2023-04-18T21:29:04.960Z,98227.05
2023-04-18T21:31:34.808Z,98225.30
2023-04-18T21:34:05.188Z,98224.89
2023-04-18T21:36:33.224Z,98224.67
2023-04-18T21:39:01.293Z,98226.41
2023-04-18T21:41:30.115Z,98219.66
2023-04-18T21:43:58.030Z,98219.14
2023-04-18T21:46:26.087Z,98218.09
2023-04-18T21:48:54.194Z,98213.58
2023-04-18T21:51:22.079Z,98214.53
2023-04-18T21:53:50.046Z,98212.08
2023-04-18T21:56:18.046Z,98207.49
2023-04-18T21:58:46.176Z,98209.66
2023-04-18T22:01:14.278Z,98204.15
2023-04-18T22:03:42.501Z,98202.20
2023-04-18T22:06:10.701Z,98199.00
2023-04-18T22:08:39.092Z,98197.38
2023-04-18T22:11:11.883Z,98192.29
2023-04-18T22:13:39.888Z,98191.51
2023-04-18T22:16:09.531Z,98189.33
2023-04-18T22:18:38.183Z,98188.36
2023-04-18T22:21:06.828Z,98184.54
2023-04-18T22:23:34.874Z,98184.40
2023-04-18T22:26:02.831Z,98184.24
2023-04-18T22:28:30.916Z,98176.11
2023-04-18T22:30:58.853Z,98178.41
2023-04-18T22:33:26.956Z,98174.64
2023-04-18T22:35:55.756Z,98170.52
2023-04-18T22:38:25.056Z,98172.64
2023-04-18T22:40:53.123Z,98174.48
2023-04-18T22:43:23.744Z,98166.90
2023-04-18T22:45:51.796Z,98163.69
2023-04-18T22:48:20.084Z,98164.06
2023-04-18T22:50:49.948Z,98159.81
2023-04-18T22:53:18.154Z,98156.41
2023-04-18T22:55:46.747Z,98152.00
2023-04-18T22:58:14.885Z,98153.64
2023-04-18T23:00:43.023Z,98153.29
2023-04-18T23:03:11.279Z,98150.27
2023-04-18T23:05:40.857Z,98143.75
2023-04-18T23:08:08.769Z,98146.29
2023-04-18T23:10:36.675Z,98145.81
2023-04-18T23:13:04.677Z,98146.06
2023-04-18T23:15:32.653Z,98142.09
2023-04-18T23:18:00.655Z,98137.48
2023-04-18T23:20:28.654Z,98133.41
2023-04-18T23:22:56.629Z,98134.56
2023-04-18T23:25:24.598Z,98127.44
2023-04-18T23:27:52.510Z,98125.61
2023-04-18T23:30:20.387Z,98118.31
2023-04-18T23:32:48.450Z,98110.05
2023-04-18T23:35:16.573Z,98104.51
2023-04-18T23:37:44.517Z,98103.16
2023-04-18T23:40:12.573Z,98101.19
2023-04-18T23:42:40.481Z,98091.56
2023-04-18T23:45:08.590Z,98089.03
2023-04-18T23:47:36.574Z,98084.61
2023-04-18T23:50:04.967Z,98082.37
2023-04-18T23:52:32.918Z,98077.85
2023-04-18T23:55:01.821Z,98077.31
2023-04-18T23:57:29.784Z,98073.69
2023-04-18T23:59:57.737Z,98074.45
